createdAt,value
2019-02-21T00:00:02.092Z,6.70
2019-02-21T00:02:30.138Z,6.70
2019-02-21T00:04:58.207Z,6.50
2019-02-21T00:07:26.895Z,6.50
2019-02-21T00:09:55.761Z,6.70
2019-02-21T00:12:24.552Z,6.80
2019-02-21T00:14:52.958Z,6.80
2019-02-21T00:17:21.257Z,6.80
2019-02-21T00:19:49.746Z,6.80
2019-02-21T00:22:17.509Z,6.80
2019-02-21T00:24:46.844Z,6.80
2019-02-21T00:27:14.869Z,6.80
2019-02-21T00:29:43.545Z,6.70
2019-02-21T00:32:12.243Z,6.70
2019-02-21T00:34:40.750Z,6.70
2019-02-21T00:37:09.491Z,6.70
2019-02-21T00:39:37.755Z,6.70
2019-02-21T00:42:06.049Z,6.70
2019-02-21T00:44:34.060Z,6.70
2019-02-21T00:47:02.093Z,6.80
2019-02-21T00:49:30.463Z,6.60
2019-02-21T00:51:58.748Z,6.40
2019-02-21T00:54:27.135Z,6.40
2019-02-21T00:56:55.527Z,6.30
2019-02-21T01:01:51.690Z,6.00
2019-02-21T01:04:20.008Z,6.00
2019-02-21T01:06:48.214Z,5.90
2019-02-21T01:09:16.326Z,5.90
2019-02-21T01:11:44.682Z,6.10
2019-02-21T01:14:12.557Z,6.00
2019-02-21T01:16:40.601Z,6.00
2019-02-21T01:19:08.664Z,6.00
2019-02-21T01:21:37.396Z,5.80
2019-02-21T01:26:33.514Z,5.80
2019-02-21T01:29:01.700Z,5.90
2019-02-21T01:31:30.174Z,6.10
2019-02-21T01:33:58.874Z,6.10
2019-02-21T01:36:27.170Z,6.20
2019-02-21T01:38:55.300Z,6.20
2019-02-21T01:41:23.822Z,6.20
2019-02-21T01:43:52.153Z,6.10
2019-02-21T01:46:20.132Z,6.10
2019-02-21T01:48:48.939Z,6.00
2019-02-21T01:51:17.810Z,6.10
2019-02-21T01:53:46.388Z,6.10
2019-02-21T01:56:15.065Z,6.10
2019-02-21T02:01:10.930Z,6.10
2019-02-21T02:03:39.227Z,6.10
2019-02-21T02:06:07.679Z,6.10
2019-02-21T02:08:36.288Z,6.20
2019-02-21T02:11:05.128Z,6.10
2019-02-21T02:13:33.419Z,6.00
2019-02-21T02:16:01.511Z,5.90
2019-02-21T02:18:29.927Z,5.90
2019-02-21T02:20:58.282Z,6.00
2019-02-21T02:23:26.737Z,6.00
2019-02-21T02:25:55.140Z,6.00
2019-02-21T02:28:23.589Z,6.00
2019-02-21T02:30:51.698Z,6.50
2019-02-21T02:33:19.652Z,6.00
2019-02-21T02:35:48.454Z,6.00
2019-02-21T02:38:16.413Z,6.00
2019-02-21T02:40:44.674Z,5.90
2019-02-21T02:43:12.752Z,5.80
2019-02-21T02:45:41.652Z,5.70
2019-02-21T02:48:10.048Z,5.60
2019-02-21T02:50:38.817Z,5.70
2019-02-21T02:53:06.831Z,5.70
2019-02-21T02:58:06.296Z,5.60
2019-02-21T03:00:32.511Z,5.80
2019-02-21T03:03:01.149Z,5.80
2019-02-21T03:05:30.123Z,5.80
2019-02-21T03:07:58.034Z,5.90
2019-02-21T03:10:26.778Z,5.70
2019-02-21T03:12:55.455Z,5.50
2019-02-21T03:15:24.244Z,5.50
2019-02-21T03:17:52.340Z,5.50
2019-02-21T03:20:20.763Z,5.60
2019-02-21T03:22:48.777Z,5.40
2019-02-21T03:25:17.680Z,5.50
2019-02-21T03:27:45.687Z,5.60
2019-02-21T03:30:14.021Z,5.60
2019-02-21T03:32:42.793Z,5.70
2019-02-21T03:35:10.831Z,5.70
2019-02-21T03:37:39.349Z,5.60
2019-02-21T03:40:08.354Z,5.70
2019-02-21T03:42:36.317Z,5.70
2019-02-21T03:45:04.829Z,6.50
2019-02-21T03:47:33.180Z,5.70
2019-02-21T03:50:03.826Z,5.70
2019-02-21T03:52:31.911Z,5.70
2019-02-21T03:54:59.974Z,5.70
2019-02-21T03:57:28.330Z,5.60
2019-02-21T03:59:56.708Z,5.60
2019-02-21T04:02:24.787Z,5.60
2019-02-21T04:04:53.442Z,5.50
2019-02-21T04:07:21.991Z,5.40
2019-02-21T04:09:50.323Z,5.20
2019-02-21T04:12:18.327Z,5.20
2019-02-21T04:14:45.980Z,5.20
2019-02-21T04:17:13.631Z,5.30
2019-02-21T04:19:41.610Z,5.30
2019-02-21T04:22:11.953Z,5.30
2019-02-21T04:24:41.489Z,5.20
2019-02-21T04:27:09.912Z,5.00
2019-02-21T04:29:37.587Z,5.10
2019-02-21T04:32:16.643Z,5.20
2019-02-21T04:34:35.479Z,5.20
2019-02-21T04:37:03.568Z,5.20
2019-02-21T04:39:32.132Z,5.20
2019-02-21T04:42:01.655Z,5.20
2019-02-21T04:44:29.873Z,5.30
2019-02-21T04:46:58.348Z,5.30
2019-02-21T04:49:26.771Z,5.30
2019-02-21T04:51:55.077Z,5.30
2019-02-21T04:54:25.019Z,5.20
2019-02-21T04:56:53.036Z,5.30
2019-02-21T04:59:21.064Z,5.30
2019-02-21T05:01:49.711Z,5.30
2019-02-21T05:04:18.480Z,5.30
2019-02-21T05:06:46.881Z,5.40
2019-02-21T05:09:14.963Z,5.40
2019-02-21T05:11:43.314Z,5.40
2019-02-21T05:14:11.814Z,5.30
2019-02-21T05:16:40.280Z,5.10
2019-02-21T05:19:08.584Z,5.10
2019-02-21T05:21:37.435Z,5.10
2019-02-21T05:24:05.524Z,5.00
2019-02-21T05:26:38.707Z,5.00
2019-02-21T05:29:08.926Z,5.00
2019-02-21T05:32:07.943Z,5.10
2019-02-21T05:34:40.912Z,5.20
2019-02-21T05:37:28.149Z,5.20
2019-02-21T05:40:05.939Z,5.30
2019-02-21T05:42:52.237Z,5.30
2019-02-21T05:45:31.279Z,5.30
2019-02-21T05:48:24.711Z,5.20
2019-02-21T05:51:10.533Z,5.20
2019-02-21T05:53:58.066Z,5.20
2019-02-21T05:56:41.498Z,5.20
2019-02-21T05:59:43.904Z,5.10
2019-02-21T06:02:22.584Z,5.20
2019-02-21T06:05:13.188Z,5.10
2019-02-21T06:08:04.087Z,5.20
2019-02-21T06:10:48.891Z,5.20
2019-02-21T06:13:40.071Z,5.20
2019-02-21T06:16:18.301Z,5.00
2019-02-21T06:19:08.083Z,4.90
2019-02-21T06:21:50.969Z,4.90
2019-02-21T06:24:28.409Z,5.00
2019-02-21T06:27:04.558Z,5.10
2019-02-21T06:29:55.250Z,5.20
2019-02-21T06:32:22.976Z,5.30
2019-02-21T06:34:52.350Z,5.30
2019-02-21T06:37:20.486Z,5.30
2019-02-21T06:39:48.959Z,5.30
2019-02-21T06:42:17.820Z,5.40
2019-02-21T06:44:46.235Z,5.40
2019-02-21T06:47:14.530Z,5.40
2019-02-21T06:49:41.859Z,5.50
2019-02-21T06:52:09.967Z,5.50
2019-02-21T06:54:38.425Z,5.50
2019-02-21T06:59:42.464Z,5.60
2019-02-21T07:02:04.795Z,5.50
2019-02-21T07:04:33.540Z,5.50
2019-02-21T07:07:02.042Z,5.50
2019-02-21T07:09:30.698Z,5.50
2019-02-21T07:11:58.852Z,5.50
2019-02-21T07:14:27.752Z,5.60
2019-02-21T07:16:56.290Z,6.00
2019-02-21T07:19:24.492Z,6.10
2019-02-21T07:21:52.902Z,6.10
2019-02-21T07:24:21.656Z,6.20
2019-02-21T07:26:50.029Z,6.20
2019-02-21T07:29:18.798Z,6.30
2019-02-21T07:31:49.284Z,6.20
2019-02-21T07:34:16.491Z,6.20
2019-02-21T07:36:44.560Z,6.40
2019-02-21T07:39:18.310Z,6.00
2019-02-21T07:41:42.771Z,6.20
2019-02-21T07:44:12.512Z,6.20
2019-02-21T07:46:40.456Z,6.10
2019-02-21T07:49:08.604Z,6.00
2019-02-21T07:51:37.281Z,6.00
2019-02-21T07:54:05.528Z,5.90
2019-02-21T07:56:41.542Z,5.90
2019-02-21T07:59:04.086Z,5.90
2019-02-21T08:01:33.678Z,6.10
2019-02-21T08:04:01.651Z,6.30
2019-02-21T08:06:29.844Z,6.30
2019-02-21T08:08:58.192Z,6.40
2019-02-21T08:11:26.593Z,6.60
2019-02-21T08:13:54.939Z,6.60
2019-02-21T08:16:22.736Z,6.70
2019-02-21T08:18:51.220Z,6.80
2019-02-21T08:21:19.489Z,6.80
2019-02-21T08:23:52.827Z,6.80
2019-02-21T08:26:39.565Z,6.80
2019-02-21T08:29:20.680Z,6.80
2019-02-21T08:31:48.931Z,6.80
2019-02-21T08:34:22.444Z,6.90
2019-02-21T08:36:50.207Z,7.00
2019-02-21T08:39:20.462Z,7.00
2019-02-21T08:41:49.630Z,5.80
2019-02-21T08:44:17.563Z,7.30
2019-02-21T08:46:45.672Z,7.40
2019-02-21T08:49:14.949Z,7.50
2019-02-21T08:51:43.770Z,7.50
2019-02-21T08:54:11.849Z,7.60
2019-02-21T08:56:39.914Z,7.60
2019-02-21T08:59:08.217Z,7.80
2019-02-21T09:01:36.152Z,8.00
2019-02-21T09:04:10.441Z,8.10
2019-02-21T09:06:34.166Z,8.30
2019-02-21T09:09:03.339Z,8.40
2019-02-21T09:11:31.762Z,8.50
2019-02-21T09:14:00.568Z,8.50
2019-02-21T09:16:28.273Z,8.40
2019-02-21T09:18:56.237Z,8.30
2019-02-21T09:21:28.719Z,8.10
2019-02-21T09:23:56.959Z,8.00
2019-02-21T09:26:24.764Z,7.90
2019-02-21T09:28:52.848Z,7.90
2019-02-21T09:31:20.512Z,7.90
2019-02-21T09:33:48.784Z,8.00
2019-02-21T09:36:16.439Z,8.00
2019-02-21T09:38:44.923Z,8.20
2019-02-21T09:41:13.319Z,8.40
2019-02-21T09:43:41.671Z,8.40
2019-02-21T09:46:10.371Z,8.50
2019-02-21T09:48:38.368Z,8.60
2019-02-21T09:51:06.868Z,8.70
2019-02-21T09:53:34.580Z,8.70
2019-02-21T09:56:03.273Z,8.70
2019-02-21T09:58:31.472Z,8.70
2019-02-21T10:00:59.817Z,8.40
2019-02-21T10:03:31.849Z,8.30
2019-02-21T10:06:01.634Z,8.20
2019-02-21T10:08:29.685Z,8.10
2019-02-21T10:10:57.394Z,7.90
2019-02-21T10:13:25.014Z,7.90
2019-02-21T10:15:53.291Z,8.10
2019-02-21T10:18:21.728Z,8.10
2019-02-21T10:20:50.410Z,8.70
2019-02-21T10:23:18.535Z,9.10
2019-02-21T10:25:47.312Z,9.40
2019-02-21T10:28:15.280Z,9.80
2019-02-21T10:30:43.769Z,10.20
2019-02-21T10:33:12.450Z,10.10
2019-02-21T10:35:40.418Z,10.30
2019-02-21T10:38:08.590Z,10.30
2019-02-21T10:40:36.548Z,10.30
2019-02-21T10:43:07.650Z,10.30
2019-02-21T10:45:47.067Z,10.50
2019-02-21T10:48:07.827Z,10.40
2019-02-21T10:50:35.458Z,10.50
2019-02-21T10:53:03.900Z,10.50
2019-02-21T10:55:33.508Z,10.90
2019-02-21T10:58:01.265Z,11.00
2019-02-21T11:00:29.755Z,11.00
2019-02-21T11:02:57.698Z,10.80
2019-02-21T11:05:25.890Z,10.60
2019-02-21T11:07:53.963Z,10.80
2019-02-21T11:10:23.356Z,10.80
2019-02-21T11:12:51.083Z,10.80
2019-02-21T11:15:19.730Z,11.00
2019-02-21T11:17:47.427Z,11.10
2019-02-21T11:20:16.760Z,11.10
2019-02-21T11:22:45.040Z,11.10
2019-02-21T11:25:14.755Z,10.90
2019-02-21T11:27:43.159Z,11.10
2019-02-21T11:30:15.915Z,11.00
2019-02-21T11:32:44.325Z,10.90
2019-02-21T11:35:14.043Z,11.10
2019-02-21T11:37:46.259Z,11.60
2019-02-21T11:40:12.934Z,12.00
2019-02-21T11:42:41.101Z,12.10
2019-02-21T11:45:11.594Z,12.20
2019-02-21T11:47:39.626Z,12.00
2019-02-21T11:50:08.577Z,12.10
2019-02-21T11:52:37.776Z,12.10
2019-02-21T11:55:06.618Z,12.40
2019-02-21T11:57:34.175Z,12.80
2019-02-21T12:00:02.339Z,12.10
2019-02-21T12:02:38.656Z,12.00
2019-02-21T12:05:00.391Z,11.90
2019-02-21T12:07:29.178Z,14.60
2019-02-21T12:09:57.688Z,16.30
2019-02-21T12:25:00.648Z,16.20
2019-02-21T12:27:29.423Z,17.20
2019-02-21T12:29:58.260Z,17.30
2019-02-21T12:32:27.235Z,16.80
2019-02-21T12:34:55.173Z,17.10
2019-02-21T12:37:24.217Z,16.80
2019-02-21T12:39:52.136Z,15.70
2019-02-21T12:42:20.587Z,12.10
2019-02-21T12:44:48.810Z,14.60
2019-02-21T12:47:16.895Z,13.80
2019-02-21T12:49:44.931Z,13.80
2019-02-21T12:52:13.253Z,13.40
2019-02-21T12:54:41.545Z,13.50
2019-02-21T12:57:10.381Z,13.20
2019-02-21T12:59:41.491Z,13.00
2019-02-21T13:02:08.841Z,12.80
2019-02-21T13:04:37.183Z,12.80
2019-02-21T13:07:05.292Z,12.10
2019-02-21T13:09:33.631Z,12.10
2019-02-21T13:12:01.715Z,12.80
2019-02-21T13:14:36.580Z,13.60
2019-02-21T13:17:12.249Z,13.90
2019-02-21T13:19:41.573Z,14.20
2019-02-21T13:22:10.428Z,14.60
2019-02-21T13:24:54.330Z,15.00
2019-02-21T13:27:22.820Z,15.20
2019-02-21T13:29:54.762Z,16.00
2019-02-21T13:34:50.908Z,15.20
2019-02-21T13:37:28.245Z,15.30
2019-02-21T13:39:48.688Z,15.80
2019-02-21T13:42:17.095Z,16.40
2019-02-21T13:44:45.800Z,16.40
2019-02-21T13:47:14.171Z,16.10
2019-02-21T13:49:42.621Z,15.30
2019-02-21T13:52:10.328Z,14.70
2019-02-21T13:54:39.116Z,14.00
2019-02-21T13:57:08.660Z,14.00
2019-02-21T13:59:37.296Z,13.90
2019-02-21T14:02:05.561Z,14.20
2019-02-21T14:04:33.604Z,14.10
2019-02-21T14:07:02.167Z,14.00
2019-02-21T14:09:30.665Z,13.80
2019-02-21T14:11:58.740Z,13.70
2019-02-21T14:14:27.774Z,13.40
2019-02-21T14:16:55.812Z,13.40
2019-02-21T14:19:24.912Z,13.30
2019-02-21T14:21:53.114Z,13.60
2019-02-21T14:24:21.635Z,14.40
2019-02-21T14:26:50.175Z,14.60
2019-02-21T14:29:18.143Z,14.90
2019-02-21T14:31:45.870Z,15.20
2019-02-21T14:34:14.064Z,15.90
2019-02-21T14:36:42.643Z,16.00
2019-02-21T14:39:10.732Z,16.10
2019-02-21T14:41:38.530Z,16.40
2019-02-21T14:44:07.579Z,15.90
2019-02-21T14:46:36.322Z,16.30
2019-02-21T14:49:04.748Z,16.20
2019-02-21T14:51:33.123Z,16.40
2019-02-21T14:54:00.799Z,16.50
2019-02-21T14:56:28.448Z,16.10
2019-02-21T14:58:56.429Z,15.60
2019-02-21T15:01:24.500Z,15.60
2019-02-21T15:03:52.985Z,15.20
2019-02-21T15:06:27.188Z,15.20
2019-02-21T15:08:51.879Z,15.00
2019-02-21T15:11:20.590Z,14.60
2019-02-21T15:13:48.960Z,14.50
2019-02-21T15:16:16.716Z,14.60
2019-02-21T15:18:45.113Z,14.70
2019-02-21T15:21:13.209Z,14.60
2019-02-21T15:23:41.644Z,14.50
2019-02-21T15:26:10.237Z,14.10
2019-02-21T15:28:38.303Z,14.00
2019-02-21T15:31:06.667Z,13.70
2019-02-21T15:33:35.368Z,13.50
2019-02-21T15:36:03.959Z,13.30
2019-02-21T15:38:32.006Z,13.20
2019-02-21T15:41:02.002Z,13.00
2019-02-21T15:43:30.238Z,13.00
2019-02-21T15:45:58.701Z,12.90
2019-02-21T15:48:27.139Z,12.90
2019-02-21T15:50:55.667Z,12.70
2019-02-21T15:53:25.485Z,12.70
2019-02-21T15:55:53.751Z,12.70
2019-02-21T15:58:24.430Z,12.80
2019-02-21T16:00:54.876Z,12.70
2019-02-21T16:03:25.149Z,12.70
2019-02-21T16:05:54.201Z,12.70
2019-02-21T16:08:22.629Z,12.70
2019-02-21T16:10:51.139Z,12.70
2019-02-21T16:13:19.011Z,12.60
2019-02-21T16:15:47.239Z,12.60
2019-02-21T16:18:15.336Z,12.60
2019-02-21T16:20:43.296Z,12.50
2019-02-21T16:23:11.565Z,12.50
2019-02-21T16:25:39.609Z,12.40
2019-02-21T16:28:08.116Z,12.40
2019-02-21T16:30:36.337Z,12.40
2019-02-21T16:33:04.687Z,12.40
2019-02-21T16:35:33.679Z,12.40
2019-02-21T16:38:01.751Z,12.40
2019-02-21T16:40:30.660Z,12.30
2019-02-21T16:42:58.820Z,12.30
2019-02-21T16:45:34.258Z,12.30
2019-02-21T16:47:57.818Z,12.20
2019-02-21T16:50:29.772Z,12.30
2019-02-21T16:52:57.132Z,12.20
2019-02-21T16:55:25.615Z,12.20
2019-02-21T16:57:53.432Z,12.20
2019-02-21T17:00:21.673Z,12.20
2019-02-21T17:02:49.977Z,12.10
2019-02-21T17:05:18.467Z,12.10
2019-02-21T17:07:46.937Z,12.10
2019-02-21T17:10:15.442Z,12.10
2019-02-21T17:12:43.926Z,12.10
2019-02-21T17:15:12.370Z,12.00
2019-02-21T17:17:40.786Z,12.00
2019-02-21T17:20:10.364Z,12.00
2019-02-21T17:22:39.097Z,12.00
2019-02-21T17:25:08.400Z,11.90
2019-02-21T17:27:38.331Z,11.90
2019-02-21T17:30:06.641Z,11.90
2019-02-21T17:32:35.188Z,11.90
2019-02-21T17:35:03.701Z,11.90
2019-02-21T17:37:38.345Z,11.80
2019-02-21T17:40:08.029Z,11.80
2019-02-21T17:42:36.421Z,11.80
2019-02-21T17:45:04.964Z,11.80
2019-02-21T17:47:33.930Z,11.70
2019-02-21T17:50:03.173Z,11.70
2019-02-21T17:52:35.063Z,11.70
2019-02-21T17:55:03.453Z,11.70
2019-02-21T17:57:31.564Z,11.60
2019-02-21T18:00:00.349Z,11.60
2019-02-21T18:02:28.603Z,11.60
2019-02-21T18:04:56.904Z,11.60
2019-02-21T18:07:35.867Z,11.60
2019-02-21T18:09:55.648Z,11.60
2019-02-21T18:12:24.177Z,11.60
2019-02-21T18:14:53.102Z,11.60
2019-02-21T18:17:21.361Z,11.60
2019-02-21T18:19:49.110Z,11.50
2019-02-21T18:22:16.756Z,11.50
2019-02-21T18:24:45.415Z,11.50
2019-02-21T18:27:13.764Z,11.50
2019-02-21T18:29:43.774Z,11.70
2019-02-21T18:32:12.073Z,11.50
2019-02-21T18:34:40.452Z,11.50
2019-02-21T18:37:08.937Z,11.50
2019-02-21T18:39:37.874Z,11.40
2019-02-21T18:42:07.846Z,11.40
2019-02-21T18:44:39.112Z,11.40
2019-02-21T18:47:08.339Z,11.30
2019-02-21T18:49:37.454Z,11.30
2019-02-21T18:52:06.307Z,11.20
2019-02-21T18:54:35.694Z,11.20
2019-02-21T18:57:03.880Z,11.20
2019-02-21T18:59:32.181Z,11.20
2019-02-21T19:02:01.152Z,11.10
2019-02-21T19:04:29.772Z,11.10
2019-02-21T19:06:58.625Z,11.10
2019-02-21T19:09:28.041Z,11.10
2019-02-21T19:11:56.419Z,11.20
2019-02-21T19:14:25.896Z,11.10
2019-02-21T19:16:54.495Z,11.10
2019-02-21T19:19:22.974Z,11.00
2019-02-21T19:21:51.974Z,11.00
2019-02-21T19:24:19.631Z,11.00
2019-02-21T19:26:50.782Z,10.90
2019-02-21T19:29:22.638Z,10.80
2019-02-21T19:31:51.506Z,10.70
2019-02-21T19:34:20.147Z,10.70
2019-02-21T19:36:50.956Z,10.60
2019-02-21T19:39:20.132Z,10.60
2019-02-21T19:41:48.830Z,10.60
2019-02-21T19:44:17.201Z,10.50
2019-02-21T19:49:17.257Z,10.50
2019-02-21T19:54:14.214Z,10.50
2019-02-21T19:56:45.262Z,10.60
2019-02-21T19:59:14.468Z,10.50
2019-02-21T20:01:43.003Z,10.50
2019-02-21T20:04:11.341Z,10.50
2019-02-21T20:06:40.313Z,10.40
2019-02-21T20:09:09.094Z,10.40
2019-02-21T20:11:39.010Z,10.40
2019-02-21T20:14:07.708Z,10.30
2019-02-21T20:16:38.779Z,10.40
2019-02-21T20:19:13.990Z,10.30
2019-02-21T20:21:45.162Z,10.30
2019-02-21T20:24:20.320Z,10.20
2019-02-21T20:26:50.813Z,10.20
2019-02-21T20:29:20.297Z,10.20
2019-02-21T20:31:49.323Z,10.20
2019-02-21T20:34:18.302Z,10.20
2019-02-21T20:36:51.093Z,10.20
2019-02-21T20:39:17.222Z,10.20
2019-02-21T20:42:02.318Z,10.10
2019-02-21T20:44:33.694Z,10.10
2019-02-21T20:47:01.927Z,10.10
2019-02-21T20:49:32.303Z,10.10
2019-02-21T20:52:03.252Z,10.10
2019-02-21T20:54:32.009Z,10.10
2019-02-21T20:57:00.542Z,10.00
2019-02-21T20:59:30.740Z,10.10
2019-02-21T21:01:58.962Z,10.00
2019-02-21T21:04:28.473Z,10.00
2019-02-21T21:06:57.022Z,10.00
2019-02-21T21:09:25.411Z,10.10
2019-02-21T21:11:53.460Z,10.00
2019-02-21T21:14:21.211Z,10.00
2019-02-21T21:16:50.152Z,10.00
2019-02-21T21:19:18.198Z,10.00
2019-02-21T21:21:47.913Z,10.00
2019-02-21T21:24:15.849Z,10.00
2019-02-21T21:26:45.814Z,10.00
2019-02-21T21:29:13.812Z,10.10
2019-02-21T21:31:44.580Z,10.10
2019-02-21T21:34:12.553Z,10.00
2019-02-21T21:36:40.954Z,10.00
2019-02-21T21:39:09.333Z,10.10
2019-02-21T21:41:38.321Z,10.00
2019-02-21T21:44:06.070Z,10.10
2019-02-21T21:46:36.134Z,10.10
2019-02-21T21:49:04.586Z,10.10
2019-02-21T21:51:34.090Z,10.10
2019-02-21T21:54:38.033Z,10.00
2019-02-21T21:57:06.495Z,10.00
2019-02-21T21:59:35.044Z,10.10
2019-02-21T22:02:03.301Z,10.00
2019-02-21T22:04:35.903Z,10.00
2019-02-21T22:07:06.102Z,10.00
2019-02-21T22:09:34.123Z,10.00
2019-02-21T22:12:01.844Z,10.00
2019-02-21T22:14:30.372Z,10.00
2019-02-21T22:16:58.523Z,10.00
2019-02-21T22:19:26.918Z,10.00
2019-02-21T22:21:56.322Z,9.90
2019-02-21T22:24:25.113Z,9.90
2019-02-21T22:26:54.003Z,9.90
2019-02-21T22:29:22.408Z,9.90
2019-02-21T22:31:50.919Z,10.00
2019-02-21T22:34:19.052Z,10.00
2019-02-21T22:36:47.417Z,10.00
2019-02-21T22:39:16.745Z,10.10
2019-02-21T22:41:44.906Z,10.10
2019-02-21T22:44:14.305Z,10.10
2019-02-21T22:46:42.456Z,10.10
2019-02-21T22:49:11.799Z,10.20
2019-02-21T22:51:40.251Z,10.10
2019-02-21T22:54:08.867Z,10.10
2019-02-21T22:56:36.611Z,10.10
2019-02-21T22:59:06.911Z,10.10
2019-02-21T23:01:37.281Z,10.20
2019-02-21T23:04:34.011Z,10.10
2019-02-21T23:07:23.154Z,10.10
2019-02-21T23:09:51.526Z,10.10
2019-02-21T23:12:19.618Z,10.10
2019-02-21T23:14:48.375Z,10.10
2019-02-21T23:17:16.555Z,10.10
2019-02-21T23:19:44.713Z,10.10
2019-02-21T23:22:12.717Z,10.00
2019-02-21T23:24:41.523Z,10.00
2019-02-21T23:27:10.320Z,10.00
2019-02-21T23:29:38.725Z,10.00
2019-02-21T23:32:07.465Z,10.00
2019-02-21T23:34:37.578Z,9.90
2019-02-21T23:37:07.071Z,9.90
2019-02-21T23:39:38.385Z,10.00
2019-02-21T23:42:06.189Z,10.00
2019-02-21T23:44:33.975Z,10.00
2019-02-21T23:47:02.842Z,10.00
2019-02-21T23:49:30.431Z,10.00
2019-02-21T23:51:58.702Z,10.00
2019-02-21T23:54:26.772Z,10.00
2019-02-21T23:56:55.554Z,10.00
2019-02-21T23:59:23.938Z,10.10
